createdAt,value
2023-03-23T15:59:04.857Z,87.38
2023-03-23T16:01:22.100Z,87.33
2023-03-23T16:03:40.217Z,87.69
2023-03-23T16:05:53.528Z,88.32
2023-03-23T16:08:06.576Z,88.26
2023-03-23T16:10:26.276Z,88.09
2023-03-23T16:12:40.096Z,88.44
2023-03-23T16:14:52.816Z,88.45
2023-03-23T16:17:05.813Z,88.72
2023-03-23T16:19:25.668Z,88.89
2023-03-23T16:21:38.851Z,89.10
2023-03-23T16:23:52.699Z,88.89
2023-03-23T16:26:06.157Z,89.13
2023-03-23T16:28:21.847Z,89.13
2023-03-23T16:30:38.734Z,89.15
2023-03-23T16:32:53.676Z,89.30
2023-03-23T16:35:08.440Z,89.42
2023-03-23T16:37:22.504Z,89.47
2023-03-23T16:39:35.793Z,89.76
2023-03-23T16:41:49.157Z,89.37
2023-03-23T16:44:02.390Z,89.87
2023-03-23T16:46:16.863Z,90.15
2023-03-23T16:48:30.153Z,90.03
2023-03-23T16:50:44.127Z,90.55
2023-03-23T16:52:58.033Z,87.87
2023-03-23T16:55:12.102Z,86.10
2023-03-23T16:57:26.431Z,85.37
2023-03-23T16:59:39.362Z,85.73
2023-03-23T17:01:53.131Z,87.71
2023-03-23T17:04:07.261Z,88.77
2023-03-23T17:06:20.713Z,90.09
2023-03-23T17:08:34.033Z,90.11
2023-03-23T17:10:47.476Z,89.48
2023-03-23T17:13:00.658Z,89.61
2023-03-23T17:15:15.211Z,89.49
2023-03-23T17:17:29.013Z,89.94
2023-03-23T17:19:42.112Z,90.60
2023-03-23T17:21:55.292Z,90.99
2023-03-23T17:24:08.744Z,91.04
2023-03-23T17:26:22.033Z,90.83
2023-03-23T17:28:35.627Z,91.85
2023-03-23T17:30:49.554Z,91.48
2023-03-23T20:01:09.060Z,88.57
2023-03-23T20:03:23.020Z,87.53
2023-03-23T20:05:38.045Z,87.19
2023-03-23T20:07:51.971Z,86.36
2023-03-23T20:10:06.168Z,86.12
2023-03-23T20:12:21.215Z,87.42
2023-03-23T20:14:34.760Z,89.01
2023-03-23T20:16:48.185Z,88.96
2023-03-23T20:19:02.916Z,88.84
2023-03-23T20:21:20.165Z,89.00
2023-03-23T20:23:33.449Z,89.52
2023-03-23T20:25:46.847Z,89.32
2023-03-23T20:28:00.858Z,88.75
2023-03-23T20:30:16.966Z,86.90
2023-03-23T20:32:30.168Z,83.88
2023-03-23T20:34:42.957Z,83.46
2023-03-23T20:36:57.047Z,83.67
2023-03-23T20:39:12.676Z,83.60
2023-03-23T20:41:27.027Z,82.53
2023-03-23T20:43:40.350Z,82.12
2023-03-23T20:45:53.331Z,81.54
2023-03-23T20:48:06.888Z,82.05
2023-03-23T20:50:19.977Z,82.20
2023-03-23T20:52:32.953Z,82.42
2023-03-23T20:54:45.798Z,81.80
2023-03-23T20:57:00.866Z,81.00
2023-03-23T20:59:15.226Z,81.34
2023-03-23T21:01:29.408Z,82.84
2023-03-23T21:03:44.638Z,84.15
2023-03-23T21:05:57.860Z,83.93
2023-03-23T21:08:12.479Z,84.49
2023-03-23T21:10:26.769Z,83.24
2023-03-23T21:12:40.099Z,82.05
2023-03-23T21:14:53.420Z,83.23
2023-03-23T21:17:07.270Z,84.10
2023-03-23T21:19:21.142Z,83.55
2023-03-23T21:21:35.442Z,84.16
2023-03-23T21:23:53.693Z,84.81
2023-03-23T21:26:11.626Z,85.60
2023-03-23T21:28:25.125Z,84.95
2023-03-23T21:30:43.452Z,84.51
2023-03-23T21:32:58.068Z,83.92
2023-03-23T21:35:11.562Z,83.56
2023-03-23T21:37:24.982Z,83.71
2023-03-23T21:39:38.498Z,83.43
2023-03-23T21:41:52.030Z,83.46
2023-03-23T21:44:11.573Z,83.17
2023-03-23T21:46:26.075Z,83.77
2023-03-23T21:48:42.759Z,84.56
2023-03-23T21:50:56.771Z,85.01
2023-03-23T21:53:13.929Z,86.12
2023-03-23T21:55:30.741Z,86.20
2023-03-23T21:57:44.741Z,86.43
2023-03-23T21:59:57.986Z,86.47
2023-03-23T22:02:14.618Z,86.73
2023-03-23T22:04:28.960Z,86.60
2023-03-23T22:06:43.527Z,86.72
2023-03-23T22:08:57.777Z,86.10
2023-03-23T22:11:14.004Z,83.97
2023-03-23T22:13:27.676Z,84.14
2023-03-23T22:15:40.549Z,83.66
2023-03-23T22:17:53.336Z,83.58
2023-03-23T22:20:08.955Z,83.59
2023-03-23T22:22:22.489Z,82.66
2023-03-23T22:24:35.626Z,82.58
2023-03-23T22:26:48.651Z,83.82
2023-03-23T22:29:03.371Z,85.74
2023-03-23T22:31:19.644Z,86.41
2023-03-23T22:33:33.323Z,86.06
2023-03-23T22:35:48.005Z,86.12
2023-03-23T22:38:03.677Z,85.86
2023-03-23T22:40:17.289Z,85.17
2023-03-23T22:42:31.405Z,84.13
2023-03-23T22:44:44.176Z,83.23
2023-03-23T22:46:57.077Z,82.38
2023-03-23T22:49:09.978Z,82.24
2023-03-23T22:51:24.600Z,80.72
2023-03-23T22:53:38.160Z,79.24
2023-03-23T22:55:52.471Z,79.27
2023-03-23T22:58:05.957Z,78.99
2023-03-23T23:00:20.858Z,78.82
2023-03-23T23:02:34.552Z,78.26
2023-03-23T23:04:48.078Z,77.52
2023-03-23T23:07:10.453Z,77.96
2023-03-23T23:09:26.277Z,78.33
2023-03-23T23:11:39.322Z,79.47
2023-03-23T23:13:53.027Z,80.10
2023-03-23T23:16:08.533Z,79.64
2023-03-23T23:18:22.166Z,80.05
2023-03-23T23:20:35.097Z,79.84
2023-03-23T23:22:48.341Z,79.75
2023-03-23T23:25:01.457Z,79.75
2023-03-23T23:27:14.455Z,79.71
2023-03-23T23:29:31.630Z,79.74
2023-03-23T23:31:48.989Z,79.78
2023-03-23T23:34:04.042Z,79.30
2023-03-23T23:36:22.564Z,79.30
2023-03-23T23:38:36.537Z,79.34
2023-03-23T23:40:51.388Z,79.68
2023-03-23T23:43:05.817Z,79.95
2023-03-23T23:45:22.652Z,80.26
2023-03-23T23:47:38.525Z,80.06
2023-03-23T23:49:58.206Z,79.93
2023-03-23T23:52:11.708Z,80.08
2023-03-23T23:54:24.725Z,80.05
2023-03-23T23:56:40.126Z,79.96
2023-03-23T23:58:54.802Z,80.30
